createdAt,value
2018-12-18T07:42:30.029Z,25.57
2018-12-18T07:44:57.835Z,27.07
2018-12-18T07:47:25.647Z,23.90
2018-12-18T07:50:00.642Z,22.30
2018-12-18T07:52:49.862Z,21.83
2018-12-18T07:55:17.475Z,22.23
2018-12-18T07:57:52.442Z,24.27
2018-12-18T08:00:20.375Z,23.77
2018-12-18T08:02:47.901Z,23.13
2018-12-18T08:05:15.605Z,24.47
2018-12-18T08:07:43.549Z,19.83
2018-12-18T08:10:11.338Z,24.70
2018-12-18T08:12:46.599Z,20.10
2018-12-18T08:15:14.122Z,24.87
2018-12-18T08:17:41.847Z,27.07
2018-12-18T08:20:17.003Z,23.63
2018-12-18T08:22:44.582Z,27.67
2018-12-18T08:25:12.416Z,29.13
2018-12-18T08:27:43.547Z,23.93
2018-12-18T08:30:11.081Z,27.07
2018-12-18T08:39:21.718Z,23.50
2018-12-18T08:41:49.686Z,20.80
2018-12-18T08:44:17.574Z,17.63
2018-12-18T08:46:45.224Z,20.30
2018-12-18T08:49:12.774Z,21.60
2018-12-18T08:51:40.683Z,21.13
2018-12-18T08:54:08.611Z,22.87
2018-12-18T08:56:36.335Z,20.70
2018-12-18T08:59:04.152Z,29.17
2018-12-18T09:01:31.866Z,22.13
2018-12-18T09:03:59.415Z,23.33
2018-12-18T09:06:27.036Z,22.43
2018-12-18T09:08:54.905Z,20.97
2018-12-18T09:11:22.750Z,21.30
2018-12-18T09:13:50.608Z,18.70
2018-12-18T09:16:31.404Z,20.90
2018-12-18T09:19:11.646Z,20.00
2018-12-18T09:21:39.241Z,23.87
2018-12-18T09:24:07.139Z,24.63
2018-12-18T09:26:35.057Z,21.10
2018-12-18T09:29:02.796Z,24.00
2018-12-18T09:31:30.353Z,27.50
2018-12-18T10:05:56.410Z,18.77
2018-12-18T10:08:24.694Z,17.03
2018-12-18T10:10:56.312Z,12.87
2018-12-18T10:13:24.108Z,15.97
2018-12-18T10:15:51.817Z,19.53
2018-12-18T10:18:19.408Z,17.10
2018-12-18T10:20:47.010Z,22.50
2018-12-18T10:23:14.660Z,18.23
2018-12-18T10:25:42.338Z,17.40
2018-12-18T10:28:10.221Z,20.03
2018-12-18T10:30:37.776Z,15.93
2018-12-18T10:33:05.509Z,17.37
2018-12-18T10:35:36.676Z,19.67
2018-12-18T10:38:02.702Z,16.03
2018-12-18T10:40:30.245Z,19.67
2018-12-18T10:42:58.154Z,17.00
2018-12-18T10:45:26.010Z,19.93
2018-12-18T10:48:01.168Z,17.00
2018-12-18T10:50:28.997Z,13.70
2018-12-18T10:52:56.673Z,16.77
2018-12-18T10:55:24.210Z,16.20
2018-12-18T10:57:51.774Z,15.67
2018-12-18T11:01:25.746Z,13.43
2018-12-18T11:04:42.139Z,13.40
2018-12-18T11:07:09.702Z,13.50
2018-12-18T11:09:37.367Z,12.93
2018-12-18T11:12:04.962Z,17.80
2018-12-18T11:14:32.790Z,12.53
2018-12-18T11:17:00.645Z,17.17
2018-12-18T11:19:28.470Z,12.63
2018-12-18T11:21:56.086Z,16.10
2018-12-18T11:24:23.649Z,12.67
2018-12-18T11:26:52.639Z,15.93
2018-12-18T11:29:20.510Z,16.37
2018-12-18T11:31:48.367Z,15.20
2018-12-18T11:34:16.236Z,13.23
2018-12-18T11:36:44.107Z,15.80
2018-12-18T11:39:11.922Z,17.83
2018-12-18T11:41:39.465Z,15.07
2018-12-18T11:44:07.030Z,14.63
2018-12-18T11:46:34.781Z,17.47
2018-12-18T11:49:02.625Z,13.53
2018-12-18T11:51:30.187Z,17.43
2018-12-18T11:53:57.738Z,13.83
2018-12-18T11:56:25.320Z,15.40
2018-12-18T11:58:53.304Z,14.67
2018-12-18T12:01:21.467Z,15.17
2018-12-18T12:03:49.322Z,10.80
2018-12-18T12:06:22.832Z,10.33
2018-12-18T12:08:47.011Z,12.83
2018-12-18T12:11:22.281Z,13.77
2018-12-18T12:13:50.159Z,12.80
2018-12-18T12:16:17.973Z,13.17
2018-12-18T12:18:45.570Z,12.77
2018-12-18T12:21:13.186Z,13.97
2018-12-18T12:23:40.818Z,11.47
2018-12-18T12:26:14.242Z,8.73
2018-12-18T12:28:42.110Z,10.53
2018-12-18T12:31:10.023Z,9.33
2018-12-18T12:33:37.558Z,11.20
2018-12-18T12:36:12.733Z,7.57
2018-12-18T12:39:14.851Z,12.80
2018-12-18T12:41:42.629Z,8.80
2018-12-18T12:44:10.311Z,7.00
2018-12-18T12:46:37.915Z,5.57
2018-12-18T12:49:09.458Z,7.73
2018-12-18T12:51:44.854Z,7.83
2018-12-18T12:54:20.470Z,12.23
2018-12-18T12:56:48.052Z,7.83
2018-12-18T12:59:23.635Z,9.93
2018-12-18T13:01:58.560Z,8.60
2018-12-18T13:04:33.425Z,9.43
2018-12-18T13:37:21.081Z,5.27
2018-12-18T13:39:59.390Z,8.67
2018-12-18T13:42:34.503Z,10.80
2018-12-18T13:45:10.731Z,6.83
2018-12-18T13:47:46.206Z,4.53
2018-12-18T13:50:21.689Z,6.90
2018-12-18T13:52:56.699Z,8.23
2018-12-18T13:55:36.614Z,6.60
2018-12-18T13:58:08.878Z,7.93
2018-12-18T14:00:43.794Z,8.47
2018-12-18T14:03:19.126Z,7.53
2018-12-18T14:05:55.378Z,4.77
2018-12-18T14:09:12.030Z,8.27
2018-12-18T14:11:39.614Z,6.77
2018-12-18T14:19:16.332Z,8.23
2018-12-18T14:21:52.308Z,8.63
2018-12-18T14:24:27.740Z,10.40
2018-12-18T14:27:02.752Z,7.67
2018-12-18T14:29:30.490Z,7.03
2018-12-18T14:32:05.892Z,6.00
2018-12-18T14:34:43.963Z,8.07
2018-12-18T14:37:11.654Z,5.97
2018-12-18T14:39:53.857Z,7.87
2018-12-18T14:42:29.052Z,6.03
2018-12-18T14:44:56.697Z,8.00
2018-12-18T14:47:31.792Z,7.13
2018-12-18T14:49:59.381Z,9.20
2018-12-18T14:52:26.923Z,7.30
2018-12-18T14:54:54.523Z,6.40
2018-12-18T14:57:22.438Z,7.17
2018-12-18T14:59:50.125Z,7.30
2018-12-18T15:02:17.996Z,7.10
2018-12-18T15:04:45.677Z,6.03
2018-12-18T15:07:13.266Z,7.17
2018-12-18T15:09:40.838Z,6.50
2018-12-18T15:12:08.707Z,9.10
2018-12-18T15:14:36.538Z,7.43
2018-12-18T15:17:04.434Z,10.83
2018-12-18T15:19:32.101Z,6.33
2018-12-18T15:21:59.696Z,8.57
2018-12-18T15:24:27.247Z,6.43
2018-12-18T15:26:55.130Z,6.40
2018-12-18T15:29:22.938Z,10.03
2018-12-18T15:31:50.507Z,8.00
2018-12-18T15:34:18.081Z,8.40
2018-12-18T15:36:45.654Z,4.90
2018-12-18T15:39:13.642Z,6.13
2018-12-18T15:41:41.422Z,3.63
2018-12-18T15:44:09.009Z,8.87
2018-12-18T15:46:36.613Z,5.17
2018-12-18T15:49:04.190Z,10.70
2018-12-18T15:51:32.186Z,13.40
2018-12-18T15:54:00.192Z,5.97
2018-12-18T15:56:28.009Z,6.83
2018-12-18T15:58:55.559Z,4.97
2018-12-18T16:01:23.115Z,8.67
2018-12-18T16:03:50.917Z,6.67
2018-12-18T16:06:18.717Z,7.37
2018-12-18T16:08:46.742Z,4.77
2018-12-18T16:11:14.315Z,6.80
2018-12-18T16:13:41.878Z,8.43
2018-12-18T16:16:10.181Z,8.03
2018-12-18T16:18:38.029Z,7.20
2018-12-18T16:21:05.606Z,8.60
2018-12-18T16:23:33.568Z,7.10
2018-12-18T16:26:01.137Z,8.60
2018-12-18T16:28:28.794Z,5.77
2018-12-18T16:30:56.415Z,9.37
2018-12-18T16:33:24.386Z,8.20
2018-12-18T16:35:52.127Z,7.10
2018-12-18T16:38:19.679Z,6.70
2018-12-18T16:40:47.314Z,6.17
2018-12-18T16:43:14.946Z,5.83
2018-12-18T16:45:42.701Z,6.67
2018-12-18T16:48:10.620Z,7.43
2018-12-18T16:50:38.373Z,8.23
2018-12-18T16:53:05.998Z,5.50
2018-12-18T16:55:33.627Z,8.87
2018-12-18T16:58:01.210Z,9.07
2018-12-18T17:00:28.883Z,9.60
2018-12-18T17:02:56.790Z,5.43
2018-12-18T17:05:24.386Z,4.17
2018-12-18T17:07:51.986Z,9.87
2018-12-18T17:10:19.593Z,6.30
2018-12-18T17:12:53.239Z,10.07
2018-12-18T17:15:21.101Z,6.30
2018-12-18T17:17:48.948Z,6.60
2018-12-18T17:20:16.471Z,7.77
2018-12-18T17:22:44.051Z,4.93
2018-12-18T17:25:11.617Z,7.10
2018-12-18T17:27:39.358Z,6.77
2018-12-18T17:30:07.465Z,7.70
2018-12-18T17:32:42.593Z,7.57
2018-12-18T17:35:10.280Z,7.73
2018-12-18T17:37:38.202Z,6.87
2018-12-18T17:40:07.744Z,3.87
2018-12-18T17:42:35.577Z,4.60
2018-12-18T17:45:03.552Z,7.90
2018-12-18T17:47:45.388Z,5.10
2018-12-18T17:50:13.315Z,4.47
2018-12-18T17:52:41.158Z,4.70
2018-12-18T17:55:08.787Z,5.47
2018-12-18T17:57:36.434Z,2.70
2018-12-18T18:00:53.550Z,4.03
2018-12-18T18:03:21.116Z,4.97
2018-12-18T18:05:48.682Z,6.43
2018-12-18T18:08:16.633Z,5.73
2018-12-18T18:10:44.678Z,6.37
2018-12-18T18:13:12.236Z,6.37
2018-12-18T18:15:39.980Z,5.10
2018-12-18T18:18:07.576Z,6.80
2018-12-18T18:20:35.270Z,3.60
2018-12-18T18:23:03.208Z,6.10
2018-12-18T18:25:31.107Z,5.37
2018-12-18T18:27:58.690Z,4.80
2018-12-18T18:30:26.245Z,5.20
2018-12-18T18:32:54.087Z,4.53
2018-12-18T18:35:22.100Z,6.47
2018-12-18T18:37:49.901Z,7.07
2018-12-18T18:40:17.779Z,6.93
2018-12-18T18:42:45.422Z,4.27
2018-12-18T18:45:13.103Z,6.83
2018-12-18T18:47:41.829Z,4.80
2018-12-18T18:50:09.877Z,7.13
2018-12-18T18:52:37.850Z,5.13
2018-12-18T18:55:05.505Z,5.97
2018-12-18T18:57:33.091Z,5.67
2018-12-18T19:00:00.793Z,7.27
2018-12-18T19:02:28.398Z,5.93
2018-12-18T19:04:57.668Z,6.53
2018-12-18T19:07:25.325Z,8.00
2018-12-18T19:09:53.086Z,8.27
2018-12-18T19:12:20.705Z,7.13
2018-12-18T19:14:48.310Z,6.27
2018-12-18T19:17:15.855Z,6.40
2018-12-18T19:19:43.607Z,4.40
2018-12-18T19:22:19.214Z,5.03
2018-12-18T19:24:54.244Z,4.67
2018-12-18T19:27:29.154Z,5.27
2018-12-18T19:30:05.363Z,7.07
2018-12-18T19:32:33.037Z,8.97
2018-12-18T19:35:00.924Z,6.37
2018-12-18T19:37:28.513Z,8.10
2018-12-18T19:39:56.306Z,5.90
2018-12-18T19:42:23.875Z,4.97
2018-12-18T19:44:51.953Z,7.07
2018-12-18T19:47:19.883Z,9.40
2018-12-18T19:49:47.559Z,5.20
2018-12-18T19:52:15.511Z,7.63
2018-12-18T19:54:43.062Z,4.60
2018-12-18T19:57:10.635Z,6.23
2018-12-18T19:59:38.396Z,7.70
2018-12-18T20:02:06.291Z,7.93
2018-12-18T20:04:34.206Z,4.57
2018-12-18T20:07:01.850Z,5.83
2018-12-18T20:09:29.558Z,5.20
2018-12-18T20:11:57.225Z,8.67
2018-12-18T20:14:24.903Z,7.20
2018-12-18T20:16:52.578Z,7.77
2018-12-18T20:19:20.162Z,5.77
2018-12-18T20:21:47.778Z,8.67
2018-12-18T20:24:15.404Z,6.80
2018-12-18T20:26:43.202Z,6.23
2018-12-18T20:29:13.071Z,5.60
2018-12-18T20:31:40.901Z,6.07
2018-12-18T20:34:08.834Z,6.67
2018-12-18T20:36:36.854Z,9.53
2018-12-18T20:39:07.286Z,6.47
2018-12-18T20:41:35.159Z,7.40
2018-12-18T20:44:02.821Z,6.53
2018-12-18T20:46:30.393Z,6.37
2018-12-18T20:48:58.011Z,5.73
2018-12-18T20:51:25.610Z,8.10
2018-12-18T20:53:53.493Z,7.10
2018-12-18T20:56:21.498Z,7.07
2018-12-18T20:58:49.205Z,5.10
2018-12-18T21:01:16.842Z,7.73
2018-12-18T21:03:44.436Z,7.37
2018-12-18T21:06:12.009Z,6.40
2018-12-18T21:08:39.881Z,5.03
2018-12-18T21:11:07.806Z,5.97
2018-12-18T21:13:35.568Z,6.13
2018-12-18T21:16:03.368Z,7.00
2018-12-18T21:18:31.169Z,6.17
2018-12-18T21:20:58.762Z,7.27
2018-12-18T21:23:26.702Z,6.47
2018-12-18T21:25:54.638Z,7.13
2018-12-18T21:28:22.565Z,5.30
2018-12-18T21:30:50.511Z,6.73
2018-12-18T21:33:18.166Z,6.57
2018-12-18T21:35:45.730Z,8.83
2018-12-18T21:38:13.326Z,5.90
2018-12-18T21:40:41.146Z,7.70
2018-12-18T21:43:09.025Z,6.67
2018-12-18T21:45:37.166Z,4.97
2018-12-18T21:48:04.734Z,5.50
2018-12-18T21:50:32.341Z,4.67
2018-12-18T21:52:59.926Z,5.57
2018-12-18T21:55:27.645Z,7.23
2018-12-18T21:57:55.508Z,5.67
2018-12-18T22:00:23.026Z,4.80
2018-12-18T22:02:51.503Z,6.03
2018-12-18T22:05:19.174Z,5.93
2018-12-18T22:07:46.838Z,7.93
2018-12-18T22:10:14.762Z,4.63
2018-12-18T22:12:42.585Z,5.67
2018-12-18T22:15:10.519Z,9.53
2018-12-18T22:17:38.464Z,6.63
2018-12-18T22:20:06.165Z,6.77
2018-12-18T22:22:33.753Z,4.83
2018-12-18T22:25:01.360Z,4.27
2018-12-18T22:27:29.119Z,6.53
2018-12-18T22:29:57.000Z,4.17
2018-12-18T22:32:25.025Z,5.43
2018-12-18T22:34:52.645Z,7.80
2018-12-18T22:37:20.285Z,3.53
2018-12-18T22:39:47.854Z,4.33
2018-12-18T22:42:15.709Z,5.37
2018-12-18T22:44:43.552Z,3.97
2018-12-18T22:47:11.212Z,5.67
2018-12-18T22:49:38.986Z,5.17
2018-12-18T22:57:07.211Z,5.53
2018-12-18T22:59:35.035Z,4.30
2018-12-18T23:02:07.117Z,4.27
2018-12-18T23:04:37.138Z,3.77
2018-12-18T23:07:04.793Z,3.60
2018-12-18T23:09:40.069Z,4.07
2018-12-18T23:12:08.015Z,2.80
2018-12-18T23:14:35.836Z,4.23
2018-12-18T23:17:03.443Z,5.20
2018-12-18T23:19:31.055Z,4.50
2018-12-18T23:21:58.610Z,5.23
2018-12-18T23:24:26.486Z,5.87
2018-12-18T23:26:54.269Z,6.60
2018-12-18T23:29:21.973Z,4.93
2018-12-18T23:31:49.557Z,4.90
2018-12-18T23:34:17.181Z,4.90
2018-12-18T23:36:44.763Z,4.87
2018-12-18T23:39:12.724Z,4.93
2018-12-18T23:41:40.720Z,4.70
2018-12-18T23:44:08.708Z,4.10
2018-12-18T23:46:36.271Z,5.87
2018-12-18T23:49:03.863Z,4.37
2018-12-18T23:51:31.653Z,5.37
2018-12-18T23:53:59.369Z,4.27
2018-12-18T23:56:27.423Z,2.90
2018-12-18T23:58:55.007Z,5.27
